sensor_id;sensor_type;location;lat;lon;timestamp;pressure;altitude;pressure_sealevel;temperature;humidity
63115;BME280;49208;50.874;6.466;2023-07-24T06:03:12;99335.03;;;19.13;90.07
63115;BME280;49208;50.874;6.466;2023-07-24T06:05:38;99341.31;;;19.23;89.56
63115;BME280;49208;50.874;6.466;2023-07-24T06:08:03;99332.53;;;19.31;88.43
63115;BME280;49208;50.874;6.466;2023-07-24T06:10:28;99322.59;;;19.31;87.44
63115;BME280;49208;50.874;6.466;2023-07-24T06:12:54;99329.00;;;19.30;87.56
63115;BME280;49208;50.874;6.466;2023-07-24T06:15:19;99335.81;;;19.34;88.38
63115;BME280;49208;50.874;6.466;2023-07-24T06:17:45;99337.38;;;19.37;88.51
63115;BME280;49208;50.874;6.466;2023-07-24T06:20:10;99332.13;;;19.35;88.21
63115;BME280;49208;50.874;6.466;2023-07-24T06:22:35;99347.88;;;19.30;86.86
63115;BME280;49208;50.874;6.466;2023-07-24T06:25:01;99354.78;;;19.23;86.86
63115;BME280;49208;50.874;6.466;2023-07-24T06:27:26;99348.13;;;19.17;87.88
63115;BME280;49208;50.874;6.466;2023-07-24T06:29:51;99344.25;;;19.10;88.02
63115;BME280;49208;50.874;6.466;2023-07-24T06:32:17;99356.19;;;19.08;88.04
63115;BME280;49208;50.874;6.466;2023-07-24T06:34:42;99353.72;;;19.05;88.27
63115;BME280;49208;50.874;6.466;2023-07-24T06:37:07;99337.41;;;19.06;88.47
63115;BME280;49208;50.874;6.466;2023-07-24T06:39:33;99344.97;;;19.12;87.44
63115;BME280;49208;50.874;6.466;2023-07-24T06:41:58;99340.88;;;19.18;85.50
63115;BME280;49208;50.874;6.466;2023-07-24T06:44:24;99329.97;;;19.29;84.72
63115;BME280;49208;50.874;6.466;2023-07-24T06:46:49;99342.78;;;19.37;84.39
63115;BME280;49208;50.874;6.466;2023-07-24T06:49:14;99340.50;;;19.42;83.10
63115;BME280;49208;50.874;6.466;2023-07-24T06:51:40;99338.97;;;19.49;82.99
63115;BME280;49208;50.874;6.466;2023-07-24T06:54:05;99325.34;;;19.51;82.54
63115;BME280;49208;50.874;6.466;2023-07-24T06:56:31;99319.94;;;19.51;82.25
63115;BME280;49208;50.874;6.466;2023-07-24T06:58:56;99317.81;;;19.45;83.10
63115;BME280;49208;50.874;6.466;2023-07-24T07:01:22;99330.44;;;19.44;83.25
63115;BME280;49208;50.874;6.466;2023-07-24T07:03:47;99322.75;;;19.39;83.97
63115;BME280;49208;50.874;6.466;2023-07-24T07:06:12;99317.47;;;19.38;84.13
63115;BME280;49208;50.874;6.466;2023-07-24T07:08:38;99322.75;;;19.39;83.99
63115;BME280;49208;50.874;6.466;2023-07-24T07:11:03;99328.44;;;19.36;84.12
63115;BME280;49208;50.874;6.466;2023-07-24T07:13:29;99321.44;;;19.34;84.17
63115;BME280;49208;50.874;6.466;2023-07-24T07:15:55;99324.56;;;19.29;84.74
63115;BME280;49208;50.874;6.466;2023-07-24T07:18:20;99323.72;;;19.29;85.38
63115;BME280;49208;50.874;6.466;2023-07-24T07:20:46;99319.75;;;19.33;85.04
63115;BME280;49208;50.874;6.466;2023-07-24T07:23:12;99325.03;;;19.44;84.49
63115;BME280;49208;50.874;6.466;2023-07-24T07:25:37;99322.50;;;19.62;84.75
63115;BME280;49208;50.874;6.466;2023-07-24T07:28:03;99315.03;;;19.85;83.67
63115;BME280;49208;50.874;6.466;2023-07-24T07:30:28;99309.19;;;19.99;82.10
63115;BME280;49208;50.874;6.466;2023-07-24T07:32:53;99318.44;;;20.07;80.12
63115;BME280;49208;50.874;6.466;2023-07-24T07:35:19;99317.72;;;20.14;80.04
63115;BME280;49208;50.874;6.466;2023-07-24T07:37:44;99321.97;;;20.17;79.85
63115;BME280;49208;50.874;6.466;2023-07-24T07:40:10;99318.28;;;20.18;80.23
63115;BME280;49208;50.874;6.466;2023-07-24T07:42:35;99318.72;;;20.13;79.57
63115;BME280;49208;50.874;6.466;2023-07-24T07:45:01;99314.59;;;20.09;80.05
63115;BME280;49208;50.874;6.466;2023-07-24T07:47:26;99306.63;;;20.08;79.36
63115;BME280;49208;50.874;6.466;2023-07-24T07:49:51;99307.47;;;20.08;79.98
63115;BME280;49208;50.874;6.466;2023-07-24T07:52:17;99316.03;;;20.13;79.52
63115;BME280;49208;50.874;6.466;2023-07-24T07:54:46;99312.19;;;20.16;79.62
63115;BME280;49208;50.874;6.466;2023-07-24T07:57:12;99316.88;;;20.24;80.06
63115;BME280;49208;50.874;6.466;2023-07-24T07:59:37;99328.94;;;20.29;78.41
63115;BME280;49208;50.874;6.466;2023-07-24T08:02:03;99321.25;;;20.34;79.00
63115;BME280;49208;50.874;6.466;2023-07-24T08:04:28;99328.78;;;20.41;78.48
63115;BME280;49208;50.874;6.466;2023-07-24T08:06:54;99317.97;;;20.50;78.55
63115;BME280;49208;50.874;6.466;2023-07-24T08:09:19;99316.78;;;20.63;77.72
63115;BME280;49208;50.874;6.466;2023-07-24T08:11:47;99309.78;;;20.79;77.44
63115;BME280;49208;50.874;6.466;2023-07-24T08:14:12;99304.88;;;20.93;76.69
63115;BME280;49208;50.874;6.466;2023-07-24T08:16:37;99301.72;;;20.97;75.59
63115;BME280;49208;50.874;6.466;2023-07-24T08:19:03;99304.16;;;21.01;75.62
63115;BME280;49208;50.874;6.466;2023-07-24T08:21:28;99297.13;;;21.08;75.30
63115;BME280;49208;50.874;6.466;2023-07-24T08:23:53;99297.06;;;21.17;74.78
63115;BME280;49208;50.874;6.466;2023-07-24T08:26:19;99288.91;;;21.27;74.39
63115;BME280;49208;50.874;6.466;2023-07-24T08:28:44;99279.47;;;21.31;73.51
63115;BME280;49208;50.874;6.466;2023-07-24T08:31:10;99275.81;;;21.23;72.02
63115;BME280;49208;50.874;6.466;2023-07-24T08:33:35;99268.91;;;21.10;72.60
63115;BME280;49208;50.874;6.466;2023-07-24T08:36:03;99270.84;;;21.00;73.96
63115;BME280;49208;50.874;6.466;2023-07-24T08:38:28;99279.59;;;20.84;73.24
63115;BME280;49208;50.874;6.466;2023-07-24T08:41:04;99271.22;;;20.77;74.14
63115;BME280;49208;50.874;6.466;2023-07-24T08:43:30;99272.22;;;20.76;74.15
63115;BME280;49208;50.874;6.466;2023-07-24T08:45:57;99286.44;;;20.78;73.87
63115;BME280;49208;50.874;6.466;2023-07-24T08:48:23;99282.75;;;20.79;74.50
63115;BME280;49208;50.874;6.466;2023-07-24T08:50:50;99278.75;;;20.84;74.25
63115;BME280;49208;50.874;6.466;2023-07-24T08:53:18;99271.72;;;20.91;75.00
63115;BME280;49208;50.874;6.466;2023-07-24T08:55:45;99280.03;;;21.07;73.58
63115;BME280;49208;50.874;6.466;2023-07-24T08:58:13;99283.19;;;21.30;72.29
63115;BME280;49208;50.874;6.466;2023-07-24T09:00:39;99288.19;;;21.53;70.44
63115;BME280;49208;50.874;6.466;2023-07-24T09:03:05;99293.91;;;21.68;70.08
63115;BME280;49208;50.874;6.466;2023-07-24T09:05:30;99291.44;;;21.74;69.19
63115;BME280;49208;50.874;6.466;2023-07-24T09:07:56;99286.91;;;21.75;68.92
63115;BME280;49208;50.874;6.466;2023-07-24T09:10:27;99287.75;;;21.75;70.02
63115;BME280;49208;50.874;6.466;2023-07-24T09:12:54;99272.34;;;21.76;69.95
63115;BME280;49208;50.874;6.466;2023-07-24T09:15:20;99271.00;;;21.80;70.80
63115;BME280;49208;50.874;6.466;2023-07-24T09:17:49;99263.81;;;21.89;71.08
63115;BME280;49208;50.874;6.466;2023-07-24T09:20:15;99249.69;;;22.03;69.98
63115;BME280;49208;50.874;6.466;2023-07-24T09:22:53;99252.94;;;22.25;68.32
63115;BME280;49208;50.874;6.466;2023-07-24T09:25:32;99248.34;;;22.51;67.27
63115;BME280;49208;50.874;6.466;2023-07-24T09:27:59;99241.63;;;22.64;66.66
63115;BME280;49208;50.874;6.466;2023-07-24T09:30:24;99238.66;;;22.75;66.18
63115;BME280;49208;50.874;6.466;2023-07-24T09:32:53;99239.88;;;22.89;65.75
63115;BME280;49208;50.874;6.466;2023-07-24T09:35:19;99226.66;;;22.86;64.94
63115;BME280;49208;50.874;6.466;2023-07-24T09:37:46;99230.88;;;22.80;65.36
63115;BME280;49208;50.874;6.466;2023-07-24T09:40:14;99222.19;;;22.68;64.81
63115;BME280;49208;50.874;6.466;2023-07-24T09:42:40;99216.88;;;22.58;64.61
63115;BME280;49208;50.874;6.466;2023-07-24T09:45:06;99211.25;;;22.52;64.52
63115;BME280;49208;50.874;6.466;2023-07-24T09:47:33;99213.06;;;22.43;65.63
63115;BME280;49208;50.874;6.466;2023-07-24T09:49:59;99209.78;;;22.31;65.08
63115;BME280;49208;50.874;6.466;2023-07-24T09:52:29;99199.16;;;22.20;65.71
63115;BME280;49208;50.874;6.466;2023-07-24T09:57:31;99188.88;;;22.24;67.00
63115;BME280;49208;50.874;6.466;2023-07-24T09:59:58;99182.91;;;22.46;66.52
63115;BME280;49208;50.874;6.466;2023-07-24T10:02:24;99176.41;;;22.73;65.96
63115;BME280;49208;50.874;6.466;2023-07-24T10:04:50;99180.75;;;23.00;65.13
63115;BME280;49208;50.874;6.466;2023-07-24T10:07:16;99167.94;;;23.35;62.34
63115;BME280;49208;50.874;6.466;2023-07-24T10:09:45;99167.78;;;23.86;64.07
63115;BME280;49208;50.874;6.466;2023-07-24T10:12:10;99167.72;;;24.27;60.75
63115;BME280;49208;50.874;6.466;2023-07-24T10:14:37;99168.34;;;24.54;60.83
63115;BME280;49208;50.874;6.466;2023-07-24T10:17:02;99169.16;;;24.63;60.03
63115;BME280;49208;50.874;6.466;2023-07-24T10:19:41;99162.84;;;24.70;59.81
63115;BME280;49208;50.874;6.466;2023-07-24T10:22:16;99162.50;;;24.65;58.61
63115;BME280;49208;50.874;6.466;2023-07-24T10:24:43;99161.38;;;24.51;59.58
63115;BME280;49208;50.874;6.466;2023-07-24T10:27:08;99163.59;;;24.39;59.93
63115;BME280;49208;50.874;6.466;2023-07-24T10:29:35;99162.47;;;24.17;60.20
63115;BME280;49208;50.874;6.466;2023-07-24T10:32:01;99160.31;;;23.96;60.87
63115;BME280;49208;50.874;6.466;2023-07-24T10:34:36;99154.69;;;23.65;63.58
63115;BME280;49208;50.874;6.466;2023-07-24T10:37:02;99149.25;;;23.40;64.73
63115;BME280;49208;50.874;6.466;2023-07-24T10:39:37;99140.63;;;23.29;67.11
63115;BME280;49208;50.874;6.466;2023-07-24T10:42:07;99131.28;;;23.23;66.54
63115;BME280;49208;50.874;6.466;2023-07-24T10:44:33;99120.06;;;23.26;67.05
63115;BME280;49208;50.874;6.466;2023-07-24T10:46:58;99133.63;;;23.26;66.04
63115;BME280;49208;50.874;6.466;2023-07-24T10:49:24;99111.06;;;23.17;67.74
63115;BME280;49208;50.874;6.466;2023-07-24T10:51:58;99103.09;;;23.08;68.97
63115;BME280;49208;50.874;6.466;2023-07-24T10:54:23;99090.47;;;22.90;67.19
63115;BME280;49208;50.874;6.466;2023-07-24T10:56:49;99092.28;;;22.65;68.67
63115;BME280;49208;50.874;6.466;2023-07-24T10:59:14;99109.28;;;22.33;72.65
63115;BME280;49208;50.874;6.466;2023-07-24T11:01:40;99104.91;;;22.06;74.74
63115;BME280;49208;50.874;6.466;2023-07-24T11:04:06;99101.53;;;21.77;76.09
63115;BME280;49208;50.874;6.466;2023-07-24T11:06:32;99138.81;;;21.39;79.97
63115;BME280;49208;50.874;6.466;2023-07-24T11:08:59;99200.81;;;20.87;82.61
63115;BME280;49208;50.874;6.466;2023-07-24T11:11:31;99216.06;;;20.13;87.51
63115;BME280;49208;50.874;6.466;2023-07-24T11:13:57;99157.28;;;19.78;88.30
63115;BME280;49208;50.874;6.466;2023-07-24T11:16:22;99174.91;;;19.72;94.53
63115;BME280;49208;50.874;6.466;2023-07-24T11:18:50;99170.56;;;20.09;98.83
63115;BME280;49208;50.874;6.466;2023-07-24T11:21:19;99174.19;;;20.65;100.00
63115;BME280;49208;50.874;6.466;2023-07-24T11:23:49;99172.34;;;21.29;100.00
63115;BME280;49208;50.874;6.466;2023-07-24T11:26:15;99163.06;;;21.93;100.00
63115;BME280;49208;50.874;6.466;2023-07-24T11:28:41;99180.31;;;22.36;96.33
63115;BME280;49208;50.874;6.466;2023-07-24T11:31:07;99174.63;;;22.48;91.68
63115;BME280;49208;50.874;6.466;2023-07-24T11:33:33;99175.59;;;22.38;90.59
63115;BME280;49208;50.874;6.466;2023-07-24T11:35:59;99188.66;;;22.17;90.14
63115;BME280;49208;50.874;6.466;2023-07-24T11:38:24;99182.09;;;22.02;91.14
63115;BME280;49208;50.874;6.466;2023-07-24T11:40:50;99178.22;;;21.78;92.39
63115;BME280;49208;50.874;6.466;2023-07-24T11:43:17;99199.75;;;21.62;92.12
63115;BME280;49208;50.874;6.466;2023-07-24T11:45:44;99205.59;;;21.39;92.64
63115;BME280;49208;50.874;6.466;2023-07-24T11:48:11;99192.69;;;21.15;92.62
63115;BME280;49208;50.874;6.466;2023-07-24T11:50:48;99158.41;;;21.06;96.17
63115;BME280;49208;50.874;6.466;2023-07-24T11:53:30;99163.84;;;21.42;98.28
63115;BME280;49208;50.874;6.466;2023-07-24T11:55:58;99180.63;;;21.81;97.62
63115;BME280;49208;50.874;6.466;2023-07-24T11:58:30;99193.44;;;21.97;97.16
63115;BME280;49208;50.874;6.466;2023-07-24T12:00:56;99184.19;;;22.08;94.81
63115;BME280;49208;50.874;6.466;2023-07-24T12:03:26;99183.28;;;21.99;93.25
63115;BME280;49208;50.874;6.466;2023-07-24T12:05:52;99197.31;;;22.20;93.36
63115;BME280;49208;50.874;6.466;2023-07-24T12:08:20;99186.66;;;22.53;91.65
63115;BME280;49208;50.874;6.466;2023-07-24T12:10:48;99169.28;;;22.64;86.42
63115;BME280;49208;50.874;6.466;2023-07-24T12:13:14;99174.72;;;22.80;88.28
63115;BME280;49208;50.874;6.466;2023-07-24T12:15:40;99169.75;;;23.02;89.42
63115;BME280;49208;50.874;6.466;2023-07-24T12:18:05;99171.66;;;23.26;88.83
63115;BME280;49208;50.874;6.466;2023-07-24T12:20:31;99170.50;;;23.45;85.26
63115;BME280;49208;50.874;6.466;2023-07-24T12:22:57;99171.88;;;23.49;81.83
63115;BME280;49208;50.874;6.466;2023-07-24T12:25:23;99166.06;;;23.28;76.69
63115;BME280;49208;50.874;6.466;2023-07-24T12:27:49;99158.09;;;23.18;77.66
63115;BME280;49208;50.874;6.466;2023-07-24T12:30:15;99154.88;;;23.31;76.73
63115;BME280;49208;50.874;6.466;2023-07-24T12:32:40;99142.66;;;23.51;74.68
63115;BME280;49208;50.874;6.466;2023-07-24T12:35:07;99146.88;;;23.29;72.88
63115;BME280;49208;50.874;6.466;2023-07-24T12:37:33;99142.63;;;23.10;74.65
63115;BME280;49208;50.874;6.466;2023-07-24T12:39:58;99134.81;;;23.15;76.76
63115;BME280;49208;50.874;6.466;2023-07-24T12:42:24;99140.44;;;23.38;72.89
63115;BME280;49208;50.874;6.466;2023-07-24T12:44:49;99134.53;;;23.51;70.23
63115;BME280;49208;50.874;6.466;2023-07-24T12:47:15;99140.09;;;23.66;70.82
63115;BME280;49208;50.874;6.466;2023-07-24T12:49:40;99133.50;;;23.85;72.80
63115;BME280;49208;50.874;6.466;2023-07-24T12:52:06;99135.50;;;23.99;69.89
63115;BME280;49208;50.874;6.466;2023-07-24T12:54:32;99127.66;;;24.13;70.10
63115;BME280;49208;50.874;6.466;2023-07-24T12:56:57;99126.25;;;24.25;69.50
63115;BME280;49208;50.874;6.466;2023-07-24T12:59:23;99134.09;;;24.20;68.24
63115;BME280;49208;50.874;6.466;2023-07-24T13:01:48;99144.00;;;23.80;68.10
63115;BME280;49208;50.874;6.466;2023-07-24T13:04:14;99142.16;;;23.39;69.26
63115;BME280;49208;50.874;6.466;2023-07-24T13:06:39;99132.97;;;23.08;71.39
63115;BME280;49208;50.874;6.466;2023-07-24T13:09:05;99135.25;;;22.86;73.34
63115;BME280;49208;50.874;6.466;2023-07-24T13:11:30;99138.75;;;22.62;73.17
63115;BME280;49208;50.874;6.466;2023-07-24T13:13:56;99150.88;;;22.42;74.55
63115;BME280;49208;50.874;6.466;2023-07-24T13:16:23;99150.72;;;22.17;74.74
63115;BME280;49208;50.874;6.466;2023-07-24T13:18:48;99163.31;;;22.00;76.77
63115;BME280;49208;50.874;6.466;2023-07-24T13:21:14;99165.53;;;21.78;78.87
63115;BME280;49208;50.874;6.466;2023-07-24T13:23:42;99163.16;;;21.57;82.38
63115;BME280;49208;50.874;6.466;2023-07-24T13:26:08;99167.50;;;21.50;82.89
63115;BME280;49208;50.874;6.466;2023-07-24T13:28:35;99175.69;;;21.40;83.50
63115;BME280;49208;50.874;6.466;2023-07-24T13:31:12;99189.97;;;21.33;85.12
63115;BME280;49208;50.874;6.466;2023-07-24T13:33:37;99189.06;;;21.24;85.96
63115;BME280;49208;50.874;6.466;2023-07-24T13:36:03;99197.69;;;21.10;87.78
63115;BME280;49208;50.874;6.466;2023-07-24T13:38:28;99191.41;;;20.91;87.67
63115;BME280;49208;50.874;6.466;2023-07-24T13:40:54;99203.88;;;20.74;90.51
63115;BME280;49208;50.874;6.466;2023-07-24T13:43:19;99203.53;;;20.50;91.29
63115;BME280;49208;50.874;6.466;2023-07-24T13:45:44;99204.63;;;20.29;92.83
63115;BME280;49208;50.874;6.466;2023-07-24T13:48:10;99201.25;;;20.17;93.56
63115;BME280;49208;50.874;6.466;2023-07-24T13:50:35;99193.53;;;20.23;94.88
63115;BME280;49208;50.874;6.466;2023-07-24T13:53:00;99194.50;;;20.31;95.80
63115;BME280;49208;50.874;6.466;2023-07-24T13:55:26;99196.94;;;20.34;95.89
63115;BME280;49208;50.874;6.466;2023-07-24T13:57:51;99185.53;;;20.41;96.47
63115;BME280;49208;50.874;6.466;2023-07-24T14:00:17;99182.50;;;20.44;93.61
63115;BME280;49208;50.874;6.466;2023-07-24T14:02:42;99185.75;;;20.57;94.95
63115;BME280;49208;50.874;6.466;2023-07-24T14:05:08;99181.91;;;20.59;92.42
63115;BME280;49208;50.874;6.466;2023-07-24T14:07:33;99181.78;;;20.61;93.08
63115;BME280;49208;50.874;6.466;2023-07-24T14:09:59;99167.34;;;20.70;93.03
63115;BME280;49208;50.874;6.466;2023-07-24T14:12:24;99172.97;;;20.77;92.10
63115;BME280;49208;50.874;6.466;2023-07-24T14:14:50;99176.09;;;20.82;93.46
63115;BME280;49208;50.874;6.466;2023-07-24T14:17:15;99176.25;;;20.81;91.10
63115;BME280;49208;50.874;6.466;2023-07-24T14:19:40;99177.88;;;20.91;90.66
63115;BME280;49208;50.874;6.466;2023-07-24T14:22:06;99176.59;;;21.13;91.72
63115;BME280;49208;50.874;6.466;2023-07-24T14:24:31;99166.81;;;21.48;90.86
63115;BME280;49208;50.874;6.466;2023-07-24T14:26:57;99169.28;;;21.59;86.88
63115;BME280;49208;50.874;6.466;2023-07-24T14:29:22;99170.50;;;21.65;84.36
63115;BME280;49208;50.874;6.466;2023-07-24T14:31:47;99170.66;;;21.64;84.09
63115;BME280;49208;50.874;6.466;2023-07-24T14:34:13;99180.16;;;21.68;84.44
63115;BME280;49208;50.874;6.466;2023-07-24T14:36:38;99174.28;;;21.72;85.15
63115;BME280;49208;50.874;6.466;2023-07-24T14:39:04;99172.44;;;21.73;84.49
63115;BME280;49208;50.874;6.466;2023-07-24T14:41:30;99171.13;;;21.77;84.46
63115;BME280;49208;50.874;6.466;2023-07-24T14:43:56;99169.47;;;21.84;83.18
63115;BME280;49208;50.874;6.466;2023-07-24T14:46:21;99167.84;;;21.99;81.67
63115;BME280;49208;50.874;6.466;2023-07-24T14:48:47;99170.28;;;22.03;79.87
63115;BME280;49208;50.874;6.466;2023-07-24T14:51:12;99160.38;;;21.93;80.47
63115;BME280;49208;50.874;6.466;2023-07-24T14:53:38;99172.16;;;21.84;78.75
63115;BME280;49208;50.874;6.466;2023-07-24T14:56:04;99171.56;;;21.72;79.63
63115;BME280;49208;50.874;6.466;2023-07-24T14:58:29;99177.72;;;21.56;79.70
63115;BME280;49208;50.874;6.466;2023-07-24T15:00:55;99181.66;;;21.44;79.76
63115;BME280;49208;50.874;6.466;2023-07-24T15:03:21;99172.13;;;21.58;80.53
63115;BME280;49208;50.874;6.466;2023-07-24T15:05:46;99169.41;;;21.58;77.99
63115;BME280;49208;50.874;6.466;2023-07-24T15:08:12;99169.75;;;21.55;75.07
63115;BME280;49208;50.874;6.466;2023-07-24T15:10:37;99173.56;;;21.44;76.38
63115;BME280;49208;50.874;6.466;2023-07-24T15:13:03;99182.81;;;21.42;76.49
63115;BME280;49208;50.874;6.466;2023-07-24T15:15:28;99176.28;;;21.34;76.70
63115;BME280;49208;50.874;6.466;2023-07-24T15:17:54;99179.47;;;21.30;75.96
63115;BME280;49208;50.874;6.466;2023-07-24T15:20:20;99180.88;;;21.34;76.49
63115;BME280;49208;50.874;6.466;2023-07-24T15:22:45;99175.81;;;21.39;76.07
63115;BME280;49208;50.874;6.466;2023-07-24T15:25:11;99186.25;;;21.44;73.36
63115;BME280;49208;50.874;6.466;2023-07-24T15:27:36;99181.06;;;21.50;74.58
63115;BME280;49208;50.874;6.466;2023-07-24T15:30:02;99189.47;;;21.47;74.52
63115;BME280;49208;50.874;6.466;2023-07-24T15:32:27;99190.84;;;21.51;74.19
63115;BME280;49208;50.874;6.466;2023-07-24T15:34:53;99193.63;;;21.59;73.10
63115;BME280;49208;50.874;6.466;2023-07-24T15:37:18;99196.97;;;21.71;71.66
63115;BME280;49208;50.874;6.466;2023-07-24T15:39:43;99194.53;;;21.86;70.49
63115;BME280;49208;50.874;6.466;2023-07-24T15:42:09;99201.56;;;21.97;67.10
63115;BME280;49208;50.874;6.466;2023-07-24T15:44:34;99202.34;;;22.15;68.59
63115;BME280;49208;50.874;6.466;2023-07-24T15:47:00;99206.44;;;22.19;66.61
63115;BME280;49208;50.874;6.466;2023-07-24T15:49:25;99216.00;;;22.06;66.38
63115;BME280;49208;50.874;6.466;2023-07-24T15:51:51;99218.44;;;21.91;65.91
63115;BME280;49208;50.874;6.466;2023-07-24T15:54:17;99217.25;;;21.67;67.63
63115;BME280;49208;50.874;6.466;2023-07-24T15:56:42;99222.97;;;21.46;68.29
63115;BME280;49208;50.874;6.466;2023-07-24T15:59:08;99222.78;;;21.30;67.21
63115;BME280;49208;50.874;6.466;2023-07-24T16:01:34;99235.13;;;21.14;67.71
63115;BME280;49208;50.874;6.466;2023-07-24T16:04:00;99236.97;;;20.96;68.23
63115;BME280;49208;50.874;6.466;2023-07-24T16:06:25;99235.59;;;20.82;67.80
63115;BME280;49208;50.874;6.466;2023-07-24T16:08:51;99227.13;;;20.67;69.08
63115;BME280;49208;50.874;6.466;2023-07-24T16:11:16;99230.72;;;20.58;69.78
63115;BME280;49208;50.874;6.466;2023-07-24T16:13:42;99229.03;;;20.47;69.32
63115;BME280;49208;50.874;6.466;2023-07-24T16:16:08;99228.47;;;20.44;70.04
63115;BME280;49208;50.874;6.466;2023-07-24T16:18:35;99235.03;;;20.41;70.89
63115;BME280;49208;50.874;6.466;2023-07-24T16:21:01;99232.06;;;20.34;71.38
63115;BME280;49208;50.874;6.466;2023-07-24T16:23:27;99237.47;;;20.34;71.97
63115;BME280;49208;50.874;6.466;2023-07-24T16:25:52;99245.84;;;20.31;72.76
63115;BME280;49208;50.874;6.466;2023-07-24T16:28:17;99251.13;;;20.23;76.09
63115;BME280;49208;50.874;6.466;2023-07-24T16:30:43;99247.72;;;20.21;77.54
63115;BME280;49208;50.874;6.466;2023-07-24T16:33:08;99251.56;;;20.18;77.95
63115;BME280;49208;50.874;6.466;2023-07-24T16:35:34;99248.75;;;20.20;78.54
63115;BME280;49208;50.874;6.466;2023-07-24T16:37:59;99240.50;;;20.12;78.04
63115;BME280;49208;50.874;6.466;2023-07-24T16:40:25;99245.50;;;20.07;77.96
63115;BME280;49208;50.874;6.466;2023-07-24T16:42:50;99239.09;;;19.98;78.21
63115;BME280;49208;50.874;6.466;2023-07-24T16:45:15;99249.94;;;19.88;78.35
63115;BME280;49208;50.874;6.466;2023-07-24T16:47:41;99250.22;;;19.95;78.65
63115;BME280;49208;50.874;6.466;2023-07-24T16:50:07;99252.59;;;19.98;79.54
63115;BME280;49208;50.874;6.466;2023-07-24T16:52:32;99249.78;;;19.99;78.49
63115;BME280;49208;50.874;6.466;2023-07-24T16:54:58;99252.59;;;19.98;78.27
63115;BME280;49208;50.874;6.466;2023-07-24T16:57:23;99254.59;;;19.96;78.50
63115;BME280;49208;50.874;6.466;2023-07-24T16:59:49;99264.81;;;20.02;78.82
63115;BME280;49208;50.874;6.466;2023-07-24T17:02:14;99278.91;;;19.96;77.85
63115;BME280;49208;50.874;6.466;2023-07-24T17:04:40;99284.16;;;19.88;78.18
63115;BME280;49208;50.874;6.466;2023-07-24T17:07:05;99297.97;;;19.75;78.44
63115;BME280;49208;50.874;6.466;2023-07-24T17:09:31;99307.72;;;19.56;75.63
63115;BME280;49208;50.874;6.466;2023-07-24T17:11:56;99317.75;;;19.25;75.43
63115;BME280;49208;50.874;6.466;2023-07-24T17:14:22;99326.59;;;18.96;77.08
63115;BME280;49208;50.874;6.466;2023-07-24T17:16:48;99334.97;;;18.72;80.81
63115;BME280;49208;50.874;6.466;2023-07-24T17:19:13;99342.75;;;18.45;83.77
63115;BME280;49208;50.874;6.466;2023-07-24T17:21:38;99343.75;;;18.23;86.15
63115;BME280;49208;50.874;6.466;2023-07-24T17:24:04;99336.28;;;17.94;88.52
63115;BME280;49208;50.874;6.466;2023-07-24T17:26:29;99336.22;;;17.73;89.59
63115;BME280;49208;50.874;6.466;2023-07-24T17:29:00;99335.03;;;17.54;91.66
63115;BME280;49208;50.874;6.466;2023-07-24T17:31:28;99333.75;;;17.37;93.75
63115;BME280;49208;50.874;6.466;2023-07-24T17:33:53;99347.19;;;17.26;95.37
63115;BME280;49208;50.874;6.466;2023-07-24T17:36:18;99361.63;;;17.14;96.00
63115;BME280;49208;50.874;6.466;2023-07-24T17:38:44;99366.66;;;17.07;97.30
63115;BME280;49208;50.874;6.466;2023-07-24T17:41:09;99365.66;;;16.97;98.48
63115;BME280;49208;50.874;6.466;2023-07-24T17:43:35;99356.28;;;16.91;99.63
63115;BME280;49208;50.874;6.466;2023-07-24T17:46:00;99362.50;;;16.92;99.46
63115;BME280;49208;50.874;6.466;2023-07-24T17:48:25;99363.34;;;16.92;100.00
63115;BME280;49208;50.874;6.466;2023-07-24T17:50:51;99356.13;;;16.93;100.00
63115;BME280;49208;50.874;6.466;2023-07-24T17:53:16;99356.03;;;16.94;100.00
63115;BME280;49208;50.874;6.466;2023-07-24T17:55:41;99351.63;;;16.93;100.00
63115;BME280;49208;50.874;6.466;2023-07-24T17:58:07;99357.75;;;16.95;100.00
63115;BME280;49208;50.874;6.466;2023-07-24T18:00:32;99356.75;;;16.96;100.00
63115;BME280;49208;50.874;6.466;2023-07-24T18:03:00;99363.88;;;16.98;100.00
63115;BME280;49208;50.874;6.466;2023-07-24T18:05:25;99355.19;;;16.94;100.00
63115;BME280;49208;50.874;6.466;2023-07-24T18:07:50;99359.72;;;16.93;100.00
63115;BME280;49208;50.874;6.466;2023-07-24T18:10:16;99357.97;;;16.92;100.00
63115;BME280;49208;50.874;6.466;2023-07-24T18:12:42;99358.97;;;16.91;100.00
63115;BME280;49208;50.874;6.466;2023-07-24T18:15:08;99354.44;;;16.92;100.00
63115;BME280;49208;50.874;6.466;2023-07-24T18:17:33;99356.41;;;16.90;100.00
63115;BME280;49208;50.874;6.466;2023-07-24T18:19:58;99358.34;;;16.88;100.00
63115;BME280;49208;50.874;6.466;2023-07-24T18:22:24;99352.59;;;16.81;100.00
63115;BME280;49208;50.874;6.466;2023-07-24T18:24:49;99357.44;;;16.76;100.00
63115;BME280;49208;50.874;6.466;2023-07-24T18:27:14;99354.53;;;16.79;100.00
63115;BME280;49208;50.874;6.466;2023-07-24T18:29:40;99360.13;;;16.76;100.00
63115;BME280;49208;50.874;6.466;2023-07-24T18:32:06;99361.13;;;16.75;100.00
63115;BME280;49208;50.874;6.466;2023-07-24T18:34:31;99364.78;;;16.74;100.00
63115;BME280;49208;50.874;6.466;2023-07-24T18:36:57;99369.53;;;16.70;99.76
63115;BME280;49208;50.874;6.466;2023-07-24T18:39:22;99368.78;;;16.68;99.83
63115;BME280;49208;50.874;6.466;2023-07-24T18:41:47;99364.50;;;16.66;100.00
63115;BME280;49208;50.874;6.466;2023-07-24T18:44:13;99370.16;;;16.63;100.00
63115;BME280;49208;50.874;6.466;2023-07-24T18:46:39;99366.84;;;16.59;100.00
63115;BME280;49208;50.874;6.466;2023-07-24T18:49:04;99371.56;;;16.55;100.00
63115;BME280;49208;50.874;6.466;2023-07-24T18:51:29;99377.09;;;16.54;100.00
63115;BME280;49208;50.874;6.466;2023-07-24T18:53:55;99386.22;;;16.51;100.00
63115;BME280;49208;50.874;6.466;2023-07-24T18:56:20;99388.31;;;16.48;100.00
63115;BME280;49208;50.874;6.466;2023-07-24T18:58:48;99391.34;;;16.43;100.00